createdAt,value
2023-01-07T00:02:03.059Z,100.00
2023-01-07T00:05:04.656Z,100.00
2023-01-07T00:08:06.058Z,100.00
2023-01-07T00:11:10.010Z,100.00
2023-01-07T00:14:13.443Z,100.00
2023-01-07T00:17:14.848Z,100.00
2023-01-07T00:20:16.334Z,100.00
2023-01-07T00:23:17.828Z,100.00
2023-01-07T00:26:21.684Z,100.00
2023-01-07T00:29:23.086Z,100.00
2023-01-07T00:32:44.548Z,100.00
2023-01-07T00:35:46.009Z,100.00
2023-01-07T00:38:47.912Z,100.00
2023-01-07T00:42:07.922Z,100.00
2023-01-07T00:45:10.199Z,100.00
2023-01-07T00:48:11.638Z,100.00
2023-01-07T00:51:14.872Z,100.00
2023-01-07T00:54:16.364Z,100.00
2023-01-07T00:57:17.861Z,100.00
2023-01-07T01:00:20.956Z,100.00
2023-01-07T01:03:22.894Z,100.00
2023-01-07T01:06:24.383Z,100.00
2023-01-07T01:09:26.335Z,100.00
2023-01-07T01:12:28.160Z,100.00
2023-01-07T01:15:30.780Z,100.00
2023-01-07T01:18:32.169Z,100.00
2023-01-07T01:21:33.584Z,100.00
2023-01-07T01:24:34.965Z,100.00
2023-01-07T01:27:36.673Z,100.00
2023-01-07T01:30:38.064Z,100.00
2023-01-07T01:33:39.713Z,100.00
2023-01-07T01:36:41.387Z,100.00
2023-01-07T01:39:43.096Z,100.00
2023-01-07T01:42:44.520Z,100.00
2023-01-07T01:45:50.293Z,100.00
2023-01-07T01:48:59.600Z,100.00
2023-01-07T01:52:07.103Z,100.00
2023-01-07T01:55:10.087Z,100.00
2023-01-07T01:58:17.621Z,100.00
2023-01-07T02:01:20.033Z,100.00
2023-01-07T02:04:24.393Z,100.00
2023-01-07T02:07:25.827Z,100.00
2023-01-07T02:10:32.963Z,100.00
2023-01-07T02:13:54.172Z,100.00
2023-01-07T02:17:23.627Z,100.00
2023-01-07T02:20:46.240Z,100.00
2023-01-07T02:24:14.552Z,100.00
2023-01-07T02:27:43.742Z,100.00
2023-01-07T02:31:15.786Z,100.00
2023-01-07T02:34:22.465Z,100.00
2023-01-07T02:37:37.492Z,100.00
2023-01-07T02:41:04.527Z,100.00
2023-01-07T02:44:16.826Z,100.00
2023-01-07T02:47:41.054Z,100.00
2023-01-07T02:50:42.593Z,100.00
2023-01-07T02:53:47.527Z,100.00
2023-01-07T02:57:18.145Z,100.00
2023-01-07T03:00:22.716Z,100.00
2023-01-07T03:03:52.223Z,100.00
2023-01-07T03:07:30.790Z,100.00
2023-01-07T03:10:44.834Z,100.00
2023-01-07T03:13:55.798Z,100.00
2023-01-07T03:17:04.178Z,100.00
2023-01-07T03:20:06.690Z,100.00
2023-01-07T03:23:11.726Z,100.00
2023-01-07T03:26:15.138Z,100.00
2023-01-07T03:29:18.235Z,100.00
2023-01-07T03:32:38.148Z,100.00
2023-01-07T03:35:42.559Z,100.00
2023-01-07T03:38:45.607Z,100.00
2023-01-07T03:42:09.005Z,100.00
2023-01-07T03:45:14.429Z,100.00
2023-01-07T03:48:16.206Z,100.00
2023-01-07T03:51:17.774Z,100.00
2023-01-07T03:54:19.727Z,100.00
2023-01-07T03:57:21.262Z,100.00
2023-01-07T04:00:23.122Z,100.00
2023-01-07T04:03:30.250Z,100.00
2023-01-07T04:06:31.853Z,100.00
2023-01-07T04:09:33.308Z,100.00
2023-01-07T04:12:35.127Z,100.00
2023-01-07T04:15:36.798Z,100.00
2023-01-07T04:18:38.509Z,100.00
2023-01-07T04:21:40.500Z,100.00
2023-01-07T04:24:42.022Z,100.00
2023-01-07T04:27:44.024Z,100.00
2023-01-07T04:30:46.126Z,100.00
2023-01-07T04:33:47.794Z,100.00
2023-01-07T04:36:49.345Z,100.00
2023-01-07T04:39:50.974Z,100.00
2023-01-07T04:42:52.755Z,100.00
2023-01-07T04:45:54.723Z,100.00
2023-01-07T04:48:56.217Z,100.00
2023-01-07T04:51:59.229Z,100.00
2023-01-07T04:55:01.214Z,100.00
2023-01-07T04:58:02.716Z,100.00
2023-01-07T05:01:06.908Z,100.00
2023-01-07T05:04:09.535Z,100.00
2023-01-07T05:07:11.503Z,100.00
2023-01-07T05:10:13.297Z,100.00
2023-01-07T05:13:16.830Z,100.00
2023-01-07T05:16:18.595Z,100.00
2023-01-07T05:19:21.765Z,100.00
2023-01-07T05:22:23.906Z,100.00
2023-01-07T05:25:25.451Z,100.00
2023-01-07T05:28:27.499Z,100.00
2023-01-07T05:31:29.033Z,100.00
2023-01-07T05:34:30.649Z,100.00
2023-01-07T05:37:32.788Z,100.00
2023-01-07T05:40:34.457Z,100.00
2023-01-07T05:43:35.913Z,100.00
2023-01-07T05:46:37.334Z,100.00
2023-01-07T05:49:38.727Z,100.00
2023-01-07T05:52:40.107Z,100.00
2023-01-07T05:55:41.614Z,100.00
2023-01-07T05:58:43.009Z,100.00
2023-01-07T06:01:44.412Z,100.00
2023-01-07T06:04:45.849Z,100.00
2023-01-07T06:07:47.264Z,100.00
2023-01-07T06:10:48.698Z,100.00
2023-01-07T06:13:50.146Z,100.00
2023-01-07T06:16:51.603Z,100.00
2023-01-07T06:19:53.182Z,100.00
2023-01-07T06:22:54.608Z,100.00
2023-01-07T06:25:56.002Z,100.00
2023-01-07T06:28:57.438Z,100.00
2023-01-07T06:31:58.838Z,100.00
2023-01-07T06:35:00.313Z,100.00
2023-01-07T06:38:01.714Z,100.00
2023-01-07T06:41:03.181Z,100.00
2023-01-07T06:44:04.661Z,100.00
2023-01-07T06:47:06.333Z,100.00
2023-01-07T06:50:08.188Z,100.00
2023-01-07T06:53:09.558Z,100.00
2023-01-07T06:56:11.000Z,100.00
2023-01-07T06:59:12.530Z,100.00
2023-01-07T07:02:26.320Z,100.00
2023-01-07T07:05:28.188Z,100.00
2023-01-07T07:08:29.763Z,100.00
2023-01-07T07:11:31.169Z,100.00
2023-01-07T07:14:32.611Z,100.00
2023-01-07T07:17:34.761Z,99.74
2023-01-07T07:20:36.150Z,99.90
2023-01-07T07:23:37.557Z,99.37
2023-01-07T07:26:39.063Z,99.55
2023-01-07T07:29:40.536Z,99.63
2023-01-07T07:32:42.600Z,99.27
2023-01-07T07:35:44.620Z,97.51
2023-01-07T07:38:45.999Z,97.58
2023-01-07T07:41:47.382Z,95.75
2023-01-07T07:44:52.040Z,92.49
2023-01-07T07:47:53.473Z,92.77
2023-01-07T07:50:54.881Z,91.60
2023-01-07T07:53:56.276Z,91.04
2023-01-07T07:56:58.352Z,90.25
2023-01-07T07:59:59.760Z,89.23
2023-01-07T08:03:01.422Z,89.14
2023-01-07T08:06:06.874Z,88.70
2023-01-07T08:09:08.558Z,88.71
2023-01-07T08:12:09.963Z,87.39
2023-01-07T08:15:11.608Z,86.55
2023-01-07T08:18:13.201Z,85.96
2023-01-07T08:21:14.681Z,84.54
2023-01-07T08:24:16.155Z,84.22
2023-01-07T08:27:17.526Z,83.26
2023-01-07T08:30:18.974Z,83.42
2023-01-07T08:33:20.426Z,82.21
2023-01-07T08:36:23.387Z,82.67
2023-01-07T08:39:25.051Z,82.96
2023-01-07T08:42:26.858Z,82.31
2023-01-07T08:45:28.815Z,82.08
2023-01-07T08:48:30.230Z,81.79
2023-01-07T08:51:31.665Z,82.46
2023-01-07T08:54:33.161Z,82.06
2023-01-07T08:57:34.707Z,82.19
2023-01-07T09:00:36.187Z,81.43
2023-01-07T09:03:38.170Z,81.03
2023-01-07T09:06:39.732Z,80.15
2023-01-07T09:09:42.910Z,80.81
2023-01-07T09:12:44.291Z,80.75
2023-01-07T09:15:45.715Z,81.67
2023-01-07T09:18:47.096Z,81.40
2023-01-07T09:21:48.470Z,80.61
2023-01-07T09:24:49.860Z,80.33
2023-01-07T09:27:51.264Z,80.31
2023-01-07T09:30:52.685Z,80.55
2023-01-07T09:33:54.304Z,79.91
2023-01-07T09:36:55.732Z,79.84
2023-01-07T09:39:57.340Z,79.05
2023-01-07T09:43:16.466Z,79.04
2023-01-07T09:46:18.698Z,78.11
2023-01-07T09:49:29.837Z,78.62
2023-01-07T09:52:37.424Z,78.47
2023-01-07T09:56:10.003Z,77.09
2023-01-07T09:59:04.520Z,77.34
2023-01-07T10:02:15.084Z,77.48
2023-01-07T10:05:43.446Z,77.41
2023-01-07T10:09:04.155Z,76.95
2023-01-07T10:12:33.624Z,77.20
2023-01-07T10:15:59.899Z,76.55
2023-01-07T10:19:23.729Z,77.45
2023-01-07T10:22:40.050Z,77.22
2023-01-07T10:25:48.134Z,76.53
2023-01-07T10:28:57.691Z,76.68
2023-01-07T10:32:08.095Z,76.78
2023-01-07T10:35:14.746Z,76.64
2023-01-07T10:38:19.835Z,76.48
2023-01-07T10:41:41.927Z,76.88
2023-01-07T10:44:52.421Z,76.72
2023-01-07T10:47:56.884Z,76.68
2023-01-07T10:51:24.366Z,77.53
2023-01-07T10:54:48.728Z,75.47
2023-01-07T10:57:50.160Z,75.86
2023-01-07T11:00:51.842Z,75.84
2023-01-07T11:03:55.952Z,75.63
2023-01-07T11:07:06.735Z,75.48
2023-01-07T11:10:14.998Z,75.20
2023-01-07T11:13:21.123Z,74.79
2023-01-07T11:16:29.243Z,74.65
2023-01-07T11:19:45.739Z,74.32
2023-01-07T11:22:47.248Z,74.34
2023-01-07T11:25:49.205Z,74.65
2023-01-07T11:28:53.667Z,74.62
2023-01-07T11:31:57.184Z,72.98
2023-01-07T11:35:22.588Z,73.27
2023-01-07T11:38:29.381Z,73.70
2023-01-07T11:41:30.902Z,73.86
2023-01-07T11:44:32.466Z,73.47
2023-01-07T11:47:34.227Z,72.84
2023-01-07T11:50:38.684Z,73.40
2023-01-07T11:53:51.094Z,72.89
2023-01-07T11:56:55.153Z,72.43
2023-01-07T12:00:17.209Z,71.09
2023-01-07T12:03:18.965Z,70.91
2023-01-07T12:06:33.995Z,71.07
2023-01-07T12:09:38.676Z,71.34
2023-01-07T12:12:43.870Z,70.74
2023-01-07T12:16:01.899Z,69.52
2023-01-07T12:19:53.112Z,69.89
2023-01-07T12:23:23.394Z,68.65
2023-01-07T12:26:32.337Z,67.46
2023-01-07T12:29:57.646Z,65.57
2023-01-07T12:33:28.897Z,64.83
2023-01-07T12:36:40.110Z,64.73
2023-01-07T12:39:45.347Z,64.38
2023-01-07T12:42:59.275Z,63.49
2023-01-07T12:46:04.281Z,63.07
2023-01-07T12:49:13.535Z,62.25
2023-01-07T12:52:21.247Z,61.73
2023-01-07T12:55:28.378Z,62.09
2023-01-07T12:58:38.154Z,62.33
2023-01-07T13:01:51.002Z,62.38
2023-01-07T13:05:19.988Z,62.84
2023-01-07T13:08:43.577Z,63.06
2023-01-07T13:12:41.899Z,63.60
2023-01-07T13:15:44.477Z,63.10
2023-01-07T13:18:45.873Z,63.49
2023-01-07T13:21:49.296Z,63.50
2023-01-07T13:25:12.184Z,63.14
2023-01-07T13:28:38.981Z,62.71
2023-01-07T13:32:01.946Z,60.71
2023-01-07T13:35:25.462Z,60.04
2023-01-07T13:38:55.236Z,60.76
2023-01-07T13:42:19.747Z,60.92
2023-01-07T13:45:32.370Z,61.79
2023-01-07T13:48:34.712Z,61.61
2023-01-07T13:51:38.369Z,61.77
2023-01-07T13:54:48.574Z,62.36
2023-01-07T13:57:50.868Z,62.32
2023-01-07T14:01:12.212Z,63.00
2023-01-07T14:04:22.772Z,61.50
2023-01-07T14:07:24.352Z,62.95
2023-01-07T14:10:31.415Z,63.67
2023-01-07T14:13:42.367Z,62.84
2023-01-07T14:17:02.889Z,63.10
2023-01-07T14:20:38.571Z,62.94
2023-01-07T14:23:55.747Z,62.74
2023-01-07T14:27:18.436Z,63.70
2023-01-07T14:30:23.458Z,64.10
2023-01-07T14:33:27.118Z,64.92
2023-01-07T14:37:09.756Z,65.67
2023-01-07T14:40:26.489Z,66.54
2023-01-07T14:43:46.093Z,67.66
2023-01-07T14:46:48.920Z,66.85
2023-01-07T14:50:05.585Z,67.98
2023-01-07T14:53:29.124Z,68.96
2023-01-07T14:56:39.321Z,68.53
2023-01-07T15:00:02.728Z,69.09
2023-01-07T15:03:22.970Z,69.96
2023-01-07T15:06:33.957Z,70.33
2023-01-07T15:10:09.790Z,71.28
2023-01-07T15:13:39.996Z,72.74
2023-01-07T15:16:43.499Z,73.90
2023-01-07T15:19:45.380Z,74.64
2023-01-07T15:23:34.408Z,75.40
2023-01-07T15:27:07.251Z,75.41
2023-01-07T15:30:20.377Z,76.04
2023-01-07T15:33:50.676Z,76.07
2023-01-07T15:36:52.517Z,76.15
2023-01-07T15:39:57.779Z,76.36
2023-01-07T15:42:59.425Z,76.18
2023-01-07T15:46:04.637Z,76.79
2023-01-07T15:49:09.032Z,77.34
2023-01-07T15:52:27.529Z,77.76
2023-01-07T15:55:50.090Z,77.58
2023-01-07T15:58:51.825Z,78.20
2023-01-07T16:01:59.989Z,79.60
2023-01-07T16:05:04.963Z,80.92
2023-01-07T16:08:14.863Z,79.73
2023-01-07T16:11:25.813Z,80.25
2023-01-07T16:14:28.072Z,80.80
2023-01-07T16:17:29.605Z,81.38
2023-01-07T16:20:36.015Z,81.87
2023-01-07T16:23:39.318Z,81.58
2023-01-07T16:26:49.282Z,81.99
2023-01-07T16:29:54.679Z,83.08
2023-01-07T16:32:56.716Z,83.96
2023-01-07T16:36:01.850Z,84.27
2023-01-07T16:39:12.188Z,84.50
2023-01-07T16:42:20.060Z,84.35
2023-01-07T16:45:25.141Z,85.25
2023-01-07T16:48:26.647Z,86.12
2023-01-07T16:51:37.212Z,85.52
2023-01-07T16:54:41.208Z,85.58
2023-01-07T16:57:44.956Z,86.58
2023-01-07T17:00:51.953Z,86.04
2023-01-07T17:03:58.219Z,87.40
2023-01-07T17:07:01.328Z,87.94
2023-01-07T17:10:03.107Z,87.99
2023-01-07T17:13:36.244Z,87.37
2023-01-07T17:16:38.505Z,87.37
2023-01-07T17:19:41.860Z,88.13
2023-01-07T17:22:43.540Z,88.75
2023-01-07T17:25:45.144Z,88.16
2023-01-07T17:28:50.436Z,88.59
2023-01-07T17:31:51.968Z,88.30
2023-01-07T17:34:53.502Z,89.79
2023-01-07T17:37:56.606Z,89.51
2023-01-07T17:40:58.067Z,89.25
2023-01-07T17:43:59.491Z,88.76
2023-01-07T17:47:00.939Z,89.41
2023-01-07T17:50:02.376Z,88.15
2023-01-07T17:53:04.663Z,89.57
2023-01-07T17:56:06.388Z,89.50
2023-01-07T17:59:14.795Z,89.87
2023-01-07T18:02:23.188Z,89.73
2023-01-07T18:05:26.239Z,90.27
2023-01-07T18:08:27.831Z,90.93
2023-01-07T18:11:48.204Z,89.40
2023-01-07T18:14:49.650Z,91.19
2023-01-07T18:17:51.807Z,91.88
2023-01-07T18:20:54.094Z,92.15
2023-01-07T18:23:55.536Z,92.37
2023-01-07T18:26:56.934Z,92.92
2023-01-07T18:29:58.362Z,92.59
2023-01-07T18:32:59.750Z,93.41
2023-01-07T18:36:01.535Z,91.55
2023-01-07T18:39:04.080Z,92.07
2023-01-07T18:42:05.768Z,92.84
2023-01-07T18:45:07.721Z,93.40
2023-01-07T18:48:10.316Z,92.63
2023-01-07T18:51:12.027Z,93.07
2023-01-07T18:54:14.231Z,93.79
2023-01-07T18:57:15.791Z,93.78
2023-01-07T19:00:17.428Z,94.22
2023-01-07T19:03:18.883Z,93.48
2023-01-07T19:06:20.259Z,94.08
2023-01-07T19:09:22.992Z,93.66
2023-01-07T19:12:24.396Z,94.88
2023-01-07T19:15:25.802Z,94.50
2023-01-07T19:18:28.131Z,94.38
2023-01-07T19:21:29.915Z,94.24
2023-01-07T19:24:31.403Z,94.94
2023-01-07T19:27:32.903Z,95.31
2023-01-07T19:30:34.377Z,94.67
2023-01-07T19:33:36.557Z,95.21
2023-01-07T19:36:38.196Z,95.68
2023-01-07T19:39:40.468Z,95.59
2023-01-07T19:42:41.906Z,95.66
2023-01-07T19:45:52.873Z,95.45
2023-01-07T19:48:54.298Z,95.23
2023-01-07T19:51:56.045Z,95.21
2023-01-07T19:54:57.636Z,95.04
2023-01-07T19:57:59.063Z,94.26
2023-01-07T20:01:04.377Z,93.99
2023-01-07T20:04:07.917Z,94.63
2023-01-07T20:07:09.344Z,94.61
2023-01-07T20:10:11.641Z,94.11
2023-01-07T20:13:13.032Z,94.11
2023-01-07T20:16:21.785Z,94.22
2023-01-07T20:19:23.366Z,94.09
2023-01-07T20:22:24.769Z,94.40
2023-01-07T20:25:26.238Z,94.32
2023-01-07T20:28:28.947Z,94.00
2023-01-07T20:31:31.213Z,93.04
2023-01-07T20:34:32.790Z,93.03
2023-01-07T20:37:34.570Z,92.03
2023-01-07T20:40:39.928Z,91.43
2023-01-07T20:43:41.511Z,92.69
2023-01-07T20:46:42.929Z,92.73
2023-01-07T20:49:44.863Z,93.00
2023-01-07T20:52:46.240Z,93.64
2023-01-07T20:55:51.363Z,93.72
2023-01-07T20:58:52.819Z,93.21
2023-01-07T21:01:54.357Z,93.87
2023-01-07T21:04:56.093Z,94.57
2023-01-07T21:07:59.150Z,94.56
2023-01-07T21:11:00.681Z,95.59
2023-01-07T21:14:02.112Z,95.10
2023-01-07T21:17:03.620Z,95.38
2023-01-07T21:20:06.259Z,95.21
2023-01-07T21:23:07.842Z,95.44
2023-01-07T21:26:10.102Z,93.85
2023-01-07T21:29:11.533Z,94.01
2023-01-07T21:32:13.962Z,92.80
2023-01-07T21:35:15.479Z,93.38
2023-01-07T21:38:16.857Z,92.09
2023-01-07T21:41:18.423Z,94.25
2023-01-07T21:44:19.801Z,94.57
2023-01-07T21:47:21.211Z,94.88
2023-01-07T21:50:22.606Z,96.34
2023-01-07T21:53:23.990Z,95.40
2023-01-07T21:56:32.505Z,95.71
2023-01-07T21:59:33.924Z,95.02
2023-01-07T22:02:35.309Z,95.79
2023-01-07T22:05:36.868Z,96.23
2023-01-07T22:08:38.235Z,97.22
2023-01-07T22:11:41.389Z,98.05
2023-01-07T22:14:42.772Z,97.35
2023-01-07T22:17:44.140Z,97.20
2023-01-07T22:20:52.466Z,96.17
2023-01-07T22:23:53.875Z,96.05
2023-01-07T22:26:55.435Z,95.68
2023-01-07T22:29:57.592Z,96.06
2023-01-07T22:32:59.011Z,96.21
2023-01-07T22:36:00.468Z,95.53
2023-01-07T22:39:04.595Z,95.13
2023-01-07T22:42:13.849Z,94.71
2023-01-07T22:45:21.079Z,95.12
2023-01-07T22:48:27.099Z,95.58
2023-01-07T22:51:36.917Z,95.58
2023-01-07T22:54:39.834Z,95.06
2023-01-07T22:57:41.879Z,95.68
2023-01-07T23:00:46.197Z,96.04
2023-01-07T23:03:47.867Z,95.62
2023-01-07T23:06:49.416Z,96.70
2023-01-07T23:09:51.721Z,97.98
2023-01-07T23:12:53.218Z,96.82
2023-01-07T23:15:54.769Z,96.89
2023-01-07T23:18:56.171Z,97.34
2023-01-07T23:21:57.601Z,97.07
2023-01-07T23:24:59.004Z,97.22
2023-01-07T23:28:00.404Z,96.32
2023-01-07T23:31:02.008Z,96.78
2023-01-07T23:34:04.319Z,96.70
2023-01-07T23:37:05.801Z,97.20
2023-01-07T23:40:08.773Z,97.14
2023-01-07T23:43:10.354Z,97.46
2023-01-07T23:46:11.877Z,97.39
2023-01-07T23:49:13.307Z,97.96
2023-01-07T23:52:15.005Z,100.00
2023-01-07T23:55:16.437Z,98.87
2023-01-07T23:58:18.112Z,97.38
